Time;durP1;ratioP1;P1;durP2;ratioP2;P2;SDS_P1;SDS_P2;PMS_P1;PMS_P2;Temp;Humidity;BMP_temperature;BMP_pressure;BME280_temperature;BME280_humidity;BME280_pressure;Samples;Min_cycle;Max_cycle;Signal;HPM_P1;HPM_P2
2023/06/16 00:02:18;;;;;;;;;;;;;;;;;;2197690;59;2064;-23
2023/06/16 00:04:52;;;;;;;;;;;;;;;;;;2198178;67;1987;-24
2023/06/16 00:07:22;;;;;;;;;;;;;;;;;;2197013;66;1744;-24
2023/06/16 00:09:52;;;;;;;;;;;;;;;;;;2197050;67;2616;-23
2023/06/16 00:12:22;;;;;;;;;;;;;;;;;;2192896;67;2723;-23
2023/06/16 00:14:53;;;;;;;;;;;;;;;;;;2195199;67;2071;-23
2023/06/16 00:17:23;;;;;;;;;;;;;;;;;;2193833;59;1539;-23
2023/06/16 00:19:57;;;;;;;;;;;;;;;;;;2197513;59;1993;-23
2023/06/16 00:22:27;;;;;;;;;;;;;;;;;;2195983;67;1950;-23
2023/06/16 00:24:59;;;;;;;;;;;;;;;;;;2198676;59;2268;-23
2023/06/16 00:27:29;;;;;;;;;;;;;;;;;;2195301;59;1983;-23
2023/06/16 00:29:59;;;;;;;;;;;;;;;;;;2196884;59;3176;-23
2023/06/16 00:32:30;;;;;;;;;;;;;;;;;;2199860;59;2923;-24
2023/06/16 00:35:00;;;;;;;;;;;;;;;;;;2198917;59;2139;-23
2023/06/16 00:37:31;;;;;;;;;;;;;;;;;;2193902;59;2651;-23
2023/06/16 00:40:04;;;;;;;;;;;;;;;;;;2199199;66;2640;-23
2023/06/16 00:42:34;;;;;;;;;;;;;;;;;;2198028;66;3408;-23
2023/06/16 00:45:04;;;;;;;;;;;;;;;;;;2192519;67;2691;-23
2023/06/16 00:47:35;;;;;;;;;;;;;;;;;;2194680;59;2280;-23
2023/06/16 00:50:05;;;;;;;;;;;;;;;;;;2198358;59;2764;-23
2023/06/16 00:52:37;;;;;;;;;;;;;;;;;;2198879;59;1795;-23
2023/06/16 00:55:08;;;;;;;;;;;;;;;;;;2198505;59;1695;-23
2023/06/16 00:57:39;;;;;;;;;;;;;;;;;;2196600;59;2168;-23
2023/06/16 01:00:11;;;;;;;;;;;;;;;;;;2194068;59;1953;-23
2023/06/16 01:02:45;;;;;;;;;;;;;;;;;;2200051;59;2649;-23
2023/06/16 01:05:17;;;;;;;;;;;;;;;;;;2198634;66;2628;-23
2023/06/16 01:08:11;;;;;;;;;;;;;;;;;;2197934;59;2037;-23
2023/06/16 01:10:58;;;;;;;;;;;;;;;;;;2196690;67;2423;-23
2023/06/16 01:13:38;;;;;;;;;;;;;;;;;;2193688;67;2443;-23
2023/06/16 01:16:10;;;;;;;;;;;;;;;;;;2197981;66;1941;-23
2023/06/16 01:18:43;;;;;;;;;;;;;;;;;;2198077;67;1828;-23
2023/06/16 01:21:14;;;;;;;;;;;;;;;;;;2196408;66;1935;-23
2023/06/16 01:24:02;;;;;;;;;;;;;;;;;;2194311;59;1813;-23
2023/06/16 01:26:34;;;;;;;;;;;;;;;;;;2197411;66;1967;-23
2023/06/16 01:29:11;;;;;;;;;;;;;;;;;;2198056;59;2702;-23
2023/06/16 01:31:42;;;;;;;;;;;;;;;;;;2198324;59;1740;-23
2023/06/16 01:34:13;;;;;;;;;;;;;;;;;;2196693;66;1975;-23
2023/06/16 01:36:47;;;;;;;;;;;;;;;;;;2198324;67;1739;-24
2023/06/16 01:39:17;;;;;;;;;;;;;;;;;;2196870;59;2221;-23
2023/06/16 01:41:49;;;;;;;;;;;;;;;;;;2198316;59;1984;-23
2023/06/16 01:44:20;;;;;;;;;;;;;;;;;;2193683;59;3052;-23
2023/06/16 01:46:50;;;;;;;;;;;;;;;;;;2197779;59;2358;-23
2023/06/16 01:49:21;;;;;;;;;;;;;;;;;;2198533;59;1923;-23
2023/06/16 01:51:51;;;;;;;;;;;;;;;;;;2198420;59;1765;-23
2023/06/16 01:54:22;;;;;;;;;;;;;;;;;;2196448;66;1916;-23
2023/06/16 01:56:52;;;;;;;;;;;;;;;;;;2193590;67;1931;-23
2023/06/16 01:59:22;;;;;;;;;;;;;;;;;;2196034;59;2090;-23
2023/06/16 02:01:56;;;;;;;;;;;;;;;;;;2194828;59;2123;-23
2023/06/16 02:04:27;;;;;;;;;;;;;;;;;;2196833;66;2606;-23
2023/06/16 02:06:59;;;;;;;;;;;;;;;;;;2197278;67;2226;-23
2023/06/16 02:09:31;;;;;;;;;;;;;;;;;;2196818;66;2634;-23
2023/06/16 02:12:02;;;;;;;;;;;;;;;;;;2195019;59;1965;-23
2023/06/16 02:14:33;;;;;;;;;;;;;;;;;;2197618;66;1765;-23
2023/06/16 02:17:03;;;;;;;;;;;;;;;;;;2197441;59;1808;-23
2023/06/16 02:19:34;;;;;;;;;;;;;;;;;;2197519;66;3152;-23
2023/06/16 02:22:04;;;;;;;;;;;;;;;;;;2196165;59;1979;-23
2023/06/16 02:24:35;;;;;;;;;;;;;;;;;;2197179;59;2416;-23
2023/06/16 02:27:05;;;;;;;;;;;;;;;;;;2193557;59;1780;-23
2023/06/16 02:29:35;;;;;;;;;;;;;;;;;;2194961;67;2036;-24
2023/06/16 02:32:06;;;;;;;;;;;;;;;;;;2195181;59;1871;-23
2023/06/16 02:34:36;;;;;;;;;;;;;;;;;;2197073;66;1932;-23
2023/06/16 02:37:06;;;;;;;;;;;;;;;;;;2193422;67;2463;-23
2023/06/16 02:39:37;;;;;;;;;;;;;;;;;;2197124;67;1738;-23
2023/06/16 02:42:10;;;;;;;;;;;;;;;;;;2196639;66;1942;-23
2023/06/16 02:44:41;;;;;;;;;;;;;;;;;;2197586;66;2993;-23
2023/06/16 02:47:11;;;;;;;;;;;;;;;;;;2196215;59;1891;-23
2023/06/16 02:49:42;;;;;;;;;;;;;;;;;;2198338;59;2655;-23
2023/06/16 02:52:13;;;;;;;;;;;;;;;;;;2196836;59;1827;-23
2023/06/16 02:54:43;;;;;;;;;;;;;;;;;;2197466;67;2521;-23
2023/06/16 02:57:13;;;;;;;;;;;;;;;;;;2196436;66;2499;-23
2023/06/16 02:59:43;;;;;;;;;;;;;;;;;;2198609;59;2020;-23
2023/06/16 03:02:14;;;;;;;;;;;;;;;;;;2198511;59;1967;-23
2023/06/16 03:04:44;;;;;;;;;;;;;;;;;;2197022;67;3088;-23
2023/06/16 03:07:14;;;;;;;;;;;;;;;;;;2196900;66;2087;-24
2023/06/16 03:09:45;;;;;;;;;;;;;;;;;;2197123;66;2574;-24
2023/06/16 03:12:16;;;;;;;;;;;;;;;;;;2196965;66;1716;-23
2023/06/16 03:14:46;;;;;;;;;;;;;;;;;;2197097;59;1917;-23
2023/06/16 03:17:20;;;;;;;;;;;;;;;;;;2193283;67;1882;-23
2023/06/16 03:19:50;;;;;;;;;;;;;;;;;;2198234;67;1784;-23
2023/06/16 03:22:21;;;;;;;;;;;;;;;;;;2197038;67;1989;-23
2023/06/16 03:27:25;;;;;;;;;;;;;;;;;;2217144;58;1765;-16
2023/06/16 03:29:56;;;;;;;;;;;;;;;;;;2219839;66;3089;-16
2023/06/16 03:32:27;;;;;;;;;;;;;;;;;;2220099;58;2200;-16
2023/06/16 03:34:57;;;;;;;;;;;;;;;;;;2219900;66;3360;-17
2023/06/16 03:37:27;;;;;;;;;;;;;;;;;;2216190;59;2639;-16
2023/06/16 03:40:05;;;;;;;;;;;;;;;;;;2219124;66;2385;-18
2023/06/16 03:42:36;;;;;;;;;;;;;;;;;;2216616;66;1994;-16
2023/06/16 03:45:06;;;;;;;;;;;;;;;;;;2219274;58;1738;-16
2023/06/16 03:47:38;;;;;;;;;;;;;;;;;;2220172;58;2015;-18
2023/06/16 03:50:09;;;;;;;;;;;;;;;;;;2219777;58;2246;-17
2023/06/16 03:52:39;;;;;;;;;;;;;;;;;;2220021;58;1687;-17
2023/06/16 03:55:09;;;;;;;;;;;;;;;;;;2220273;66;1802;-17
2023/06/16 03:57:39;;;;;;;;;;;;;;;;;;2220382;58;2243;-16
2023/06/16 04:00:10;;;;;;;;;;;;;;;;;;2216943;58;2317;-18
2023/06/16 04:02:41;;;;;;;;;;;;;;;;;;2220093;58;2002;-16
2023/06/16 04:05:11;;;;;;;;;;;;;;;;;;2217497;59;2658;-17
2023/06/16 04:07:41;;;;;;;;;;;;;;;;;;2220762;59;2124;-17
2023/06/16 04:10:11;;;;;;;;;;;;;;;;;;2220509;66;1740;-17
2023/06/16 04:12:42;;;;;;;;;;;;;;;;;;2220442;66;1719;-16
2023/06/16 04:15:12;;;;;;;;;;;;;;;;;;2219780;58;2436;-16
2023/06/16 04:17:42;;;;;;;;;;;;;;;;;;2221203;66;1771;-17
2023/06/16 04:20:13;;;;;;;;;;;;;;;;;;2220464;66;3261;-17
2023/06/16 04:22:43;;;;;;;;;;;;;;;;;;2217359;66;1987;-17
2023/06/16 04:25:13;;;;;;;;;;;;;;;;;;2219957;58;4449;-18
2023/06/16 04:27:46;;;;;;;;;;;;;;;;;;2218022;58;1902;-16
2023/06/16 04:30:22;;;;;;;;;;;;;;;;;;2217780;58;2566;-16
2023/06/16 04:32:54;;;;;;;;;;;;;;;;;;2220092;66;1683;-16
2023/06/16 04:35:29;;;;;;;;;;;;;;;;;;2219685;66;3451;-16
2023/06/16 04:38:00;;;;;;;;;;;;;;;;;;2220484;59;1750;-17
2023/06/16 04:40:30;;;;;;;;;;;;;;;;;;2219576;66;1730;-17
2023/06/16 04:43:00;;;;;;;;;;;;;;;;;;2220272;66;2507;-17
2023/06/16 04:45:31;;;;;;;;;;;;;;;;;;2220667;66;2595;-17
2023/06/16 04:48:01;;;;;;;;;;;;;;;;;;2216748;58;2702;-17
2023/06/16 04:50:31;;;;;;;;;;;;;;;;;;2220633;58;1937;-16
2023/06/16 04:53:03;;;;;;;;;;;;;;;;;;2217263;59;2882;-16
2023/06/16 04:55:33;;;;;;;;;;;;;;;;;;2220704;58;1616;-16
2023/06/16 04:58:03;;;;;;;;;;;;;;;;;;2220360;58;2094;-17
2023/06/16 05:00:33;;;;;;;;;;;;;;;;;;2220990;58;2358;-16
2023/06/16 05:03:04;;;;;;;;;;;;;;;;;;2221730;58;1898;-17
2023/06/16 05:05:34;;;;;;;;;;;;;;;;;;2220274;66;2170;-18
2023/06/16 05:08:05;;;;;;;;;;;;;;;;;;2216822;66;1758;-17
2023/06/16 05:10:36;;;;;;;;;;;;;;;;;;2219736;59;1724;-18
2023/06/16 05:13:06;;;;;;;;;;;;;;;;;;2220891;66;2092;-16
2023/06/16 05:15:36;;;;;;;;;;;;;;;;;;2220127;66;2523;-19
2023/06/16 05:18:06;;;;;;;;;;;;;;;;;;2216610;66;2644;-18
2023/06/16 05:20:37;;;;;;;;;;;;;;;;;;2216815;66;2406;-16
2023/06/16 05:23:07;;;;;;;;;;;;;;;;;;2220272;59;1707;-18
2023/06/16 05:25:37;;;;;;;;;;;;;;;;;;2219861;58;2004;-18
2023/06/16 05:28:07;;;;;;;;;;;;;;;;;;2219595;66;1959;-17
2023/06/16 05:30:38;;;;;;;;;;;;;;;;;;2213669;58;2649;-16
2023/06/16 05:33:08;;;;;;;;;;;;;;;;;;2217187;66;2081;-19
2023/06/16 05:35:38;;;;;;;;;;;;;;;;;;2220007;66;1692;-17
2023/06/16 05:38:08;;;;;;;;;;;;;;;;;;2220119;59;1896;-18
2023/06/16 05:40:38;;;;;;;;;;;;;;;;;;2220186;66;2044;-17
2023/06/16 05:43:09;;;;;;;;;;;;;;;;;;2219619;58;2235;-19
2023/06/16 05:45:39;;;;;;;;;;;;;;;;;;2217413;66;1875;-17
2023/06/16 05:48:10;;;;;;;;;;;;;;;;;;2219922;58;1836;-18
2023/06/16 05:50:40;;;;;;;;;;;;;;;;;;2216939;58;2047;-17
2023/06/16 05:53:11;;;;;;;;;;;;;;;;;;2220035;66;1800;-17
2023/06/16 05:55:41;;;;;;;;;;;;;;;;;;2220008;66;1967;-17
2023/06/16 05:58:12;;;;;;;;;;;;;;;;;;2216071;58;2109;-18
2023/06/16 06:00:45;;;;;;;;;;;;;;;;;;2217608;58;2296;-16
2023/06/16 06:03:15;;;;;;;;;;;;;;;;;;2219103;58;3309;-18
2023/06/16 06:05:45;;;;;;;;;;;;;;;;;;2217148;66;1751;-17
2023/06/16 06:08:22;;;;;;;;;;;;;;;;;;2219604;66;2710;-17
2023/06/16 06:10:53;;;;;;;;;;;;;;;;;;2220087;66;2397;-17
2023/06/16 06:13:23;;;;;;;;;;;;;;;;;;2219401;66;1932;-18
2023/06/16 06:15:54;;;;;;;;;;;;;;;;;;2219914;66;1697;-18
2023/06/16 06:18:27;;;;;;;;;;;;;;;;;;2219868;66;1843;-16
2023/06/16 06:20:57;;;;;;;;;;;;;;;;;;2220071;66;1988;-17
2023/06/16 06:23:27;;;;;;;;;;;;;;;;;;2219053;66;1822;-16
2023/06/16 06:25:58;;;;;;;;;;;;;;;;;;2219934;58;1970;-17
2023/06/16 06:28:28;;;;;;;;;;;;;;;;;;2216443;66;2125;-17
2023/06/16 06:30:58;;;;;;;;;;;;;;;;;;2217233;58;2028;-16
2023/06/16 06:33:28;;;;;;;;;;;;;;;;;;2219351;66;1994;-18
2023/06/16 06:35:59;;;;;;;;;;;;;;;;;;2216912;66;2229;-17
2023/06/16 06:38:29;;;;;;;;;;;;;;;;;;2216723;58;1843;-17
2023/06/16 06:41:00;;;;;;;;;;;;;;;;;;2219871;66;2831;-16
2023/06/16 06:43:30;;;;;;;;;;;;;;;;;;2217704;58;2406;-17
2023/06/16 06:46:01;;;;;;;;;;;;;;;;;;2219794;66;1800;-16
2023/06/16 06:48:31;;;;;;;;;;;;;;;;;;2218952;58;2512;-17
2023/06/16 06:51:01;;;;;;;;;;;;;;;;;;2220240;58;2406;-18
2023/06/16 06:53:32;;;;;;;;;;;;;;;;;;2215452;59;2490;-16
2023/06/16 06:56:02;;;;;;;;;;;;;;;;;;2220004;66;2027;-19
2023/06/16 06:58:33;;;;;;;;;;;;;;;;;;2219537;58;2056;-18
2023/06/16 07:01:03;;;;;;;;;;;;;;;;;;2215828;58;2228;-17
2023/06/16 07:03:34;;;;;;;;;;;;;;;;;;2219001;66;1950;-16
2023/06/16 07:06:05;;;;;;;;;;;;;;;;;;2217192;66;2306;-18
2023/06/16 07:08:35;;;;;;;;;;;;;;;;;;2219950;66;1699;-16
2023/06/16 07:11:05;;;;;;;;;;;;;;;;;;2219672;66;1974;-16
2023/06/16 07:13:36;;;;;;;;;;;;;;;;;;2219327;66;2515;-18
2023/06/16 07:16:06;;;;;;;;;;;;;;;;;;2219916;66;1685;-17
2023/06/16 07:18:36;;;;;;;;;;;;;;;;;;2218694;58;3043;-18
2023/06/16 07:21:07;;;;;;;;;;;;;;;;;;2219592;66;2281;-18
2023/06/16 07:23:37;;;;;;;;;;;;;;;;;;2219610;66;1754;-17
2023/06/16 07:26:07;;;;;;;;;;;;;;;;;;2216149;58;2364;-16
2023/06/16 07:28:37;;;;;;;;;;;;;;;;;;2219945;66;1994;-15
2023/06/16 07:31:08;;;;;;;;;;;;;;;;;;2213694;58;2008;-15
2023/06/16 07:33:38;;;;;;;;;;;;;;;;;;2216174;66;2708;-16
2023/06/16 07:36:08;;;;;;;;;;;;;;;;;;2220033;59;2158;-19
2023/06/16 07:38:38;;;;;;;;;;;;;;;;;;2219866;66;1886;-17
2023/06/16 07:41:09;;;;;;;;;;;;;;;;;;2218901;58;2234;-19
2023/06/16 07:43:39;;;;;;;;;;;;;;;;;;2217024;66;1968;-19
2023/06/16 07:46:09;;;;;;;;;;;;;;;;;;2218434;66;2202;-17
2023/06/16 07:48:43;;;;;;;;;;;;;;;;;;2218599;58;2179;-17
2023/06/16 07:51:13;;;;;;;;;;;;;;;;;;2218505;58;1815;-17
2023/06/16 07:53:43;;;;;;;;;;;;;;;;;;2215773;66;2139;-18
2023/06/16 07:56:14;;;;;;;;;;;;;;;;;;2219859;66;2400;-18
2023/06/16 07:58:45;;;;;;;;;;;;;;;;;;2219608;58;2075;-16
2023/06/16 08:01:15;;;;;;;;;;;;;;;;;;2219456;58;2484;-18
2023/06/16 08:03:46;;;;;;;;;;;;;;;;;;2216363;66;1642;-17
2023/06/16 08:06:19;;;;;;;;;;;;;;;;;;2219878;66;2068;-16
2023/06/16 08:08:49;;;;;;;;;;;;;;;;;;2217293;66;1958;-16
2023/06/16 08:11:20;;;;;;;;;;;;;;;;;;2219805;66;2448;-18
2023/06/16 08:13:50;;;;;;;;;;;;;;;;;;2219806;66;2417;-19
2023/06/16 08:16:20;;;;;;;;;;;;;;;;;;2219302;66;2367;-18
2023/06/16 08:18:52;;;;;;;;;;;;;;;;;;2219769;66;1739;-18
2023/06/16 08:21:23;;;;;;;;;;;;;;;;;;2218691;66;2256;-18
2023/06/16 08:23:53;;;;;;;;;;;;;;;;;;2219510;66;2425;-17
2023/06/16 08:26:23;;;;;;;;;;;;;;;;;;2216023;58;1734;-17
2023/06/16 08:28:54;;;;;;;;;;;;;;;;;;2215750;66;2175;-21
2023/06/16 08:31:25;;;;;;;;;;;;;;;;;;2219378;58;1760;-19
2023/06/16 08:33:55;;;;;;;;;;;;;;;;;;2219166;66;1813;-16
2023/06/16 08:36:25;;;;;;;;;;;;;;;;;;2219180;66;2279;-17
2023/06/16 08:38:56;;;;;;;;;;;;;;;;;;2219814;66;2434;-17
2023/06/16 08:41:26;;;;;;;;;;;;;;;;;;2216891;66;1989;-17
2023/06/16 08:43:58;;;;;;;;;;;;;;;;;;2219638;66;2650;-18
2023/06/16 08:46:28;;;;;;;;;;;;;;;;;;2219759;58;2343;-18
2023/06/16 08:48:59;;;;;;;;;;;;;;;;;;2215909;59;2011;-18
2023/06/16 08:51:33;;;;;;;;;;;;;;;;;;2216664;59;1822;-17
2023/06/16 08:54:06;;;;;;;;;;;;;;;;;;2219435;66;1726;-17
2023/06/16 08:56:42;;;;;;;;;;;;;;;;;;2219779;58;2432;-17
2023/06/16 08:59:14;;;;;;;;;;;;;;;;;;2219614;58;1984;-17
2023/06/16 09:01:46;;;;;;;;;;;;;;;;;;2215778;58;1992;-19
2023/06/16 09:04:19;;;;;;;;;;;;;;;;;;2219482;66;1779;-18
2023/06/16 09:06:56;;;;;;;;;;;;;;;;;;2220073;66;2363;-16
2023/06/16 09:09:26;;;;;;;;;;;;;;;;;;2219919;66;1864;-17
2023/06/16 09:12:03;;;;;;;;;;;;;;;;;;2220780;66;1455;-18
2023/06/16 09:14:36;;;;;;;;;;;;;;;;;;2214827;66;1892;-17
2023/06/16 09:17:10;;;;;;;;;;;;;;;;;;2221000;66;1553;-17
2023/06/16 09:19:47;;;;;;;;;;;;;;;;;;2219512;66;1873;-19
2023/06/16 09:22:18;;;;;;;;;;;;;;;;;;2215133;58;2377;-18
2023/06/16 09:24:52;;;;;;;;;;;;;;;;;;2217407;53;1933;-22
2023/06/16 09:27:26;;;;;;;;;;;;;;;;;;2212434;59;1783;-22
2023/06/16 09:29:57;;;;;;;;;;;;;;;;;;2213776;67;2865;-23
2023/06/16 09:32:35;;;;;;;;;;;;;;;;;;2213014;59;1714;-22
2023/06/16 09:35:22;;;;;;;;;;;;;;;;;;2208046;67;1772;-22
2023/06/16 09:37:55;;;;;;;;;;;;;;;;;;2211204;67;1610;-22
2023/06/16 09:40:27;;;;;;;;;;;;;;;;;;2209843;67;2928;-22
2023/06/16 09:42:58;;;;;;;;;;;;;;;;;;2207296;67;2182;-22
2023/06/16 09:45:32;;;;;;;;;;;;;;;;;;2209255;59;2456;-22
2023/06/16 09:48:06;;;;;;;;;;;;;;;;;;2203003;59;1942;-22
2023/06/16 09:50:37;;;;;;;;;;;;;;;;;;2209836;59;1957;-22
2023/06/16 09:53:08;;;;;;;;;;;;;;;;;;2210578;59;2710;-22
2023/06/16 09:55:39;;;;;;;;;;;;;;;;;;2209939;67;2468;-22
2023/06/16 09:58:09;;;;;;;;;;;;;;;;;;2209608;59;2044;-22
2023/06/16 10:00:39;;;;;;;;;;;;;;;;;;2210245;67;2883;-22
2023/06/16 10:03:12;;;;;;;;;;;;;;;;;;2209743;59;2207;-22
2023/06/16 10:05:47;;;;;;;;;;;;;;;;;;2210462;67;1777;-22
2023/06/16 10:08:19;;;;;;;;;;;;;;;;;;2209576;67;1658;-22
2023/06/16 10:10:51;;;;;;;;;;;;;;;;;;2209986;67;2560;-21
2023/06/16 10:13:22;;;;;;;;;;;;;;;;;;2210522;67;2058;-21
2023/06/16 10:15:54;;;;;;;;;;;;;;;;;;2210688;67;2258;-21
2023/06/16 10:18:27;;;;;;;;;;;;;;;;;;2209520;59;2279;-22
2023/06/16 10:20:58;;;;;;;;;;;;;;;;;;2207416;59;2612;-22
2023/06/16 10:23:28;;;;;;;;;;;;;;;;;;2208659;59;2234;-22
2023/06/16 10:25:59;;;;;;;;;;;;;;;;;;2210210;67;2032;-21
2023/06/16 10:28:35;;;;;;;;;;;;;;;;;;2210597;67;1919;-21
2023/06/16 10:31:05;;;;;;;;;;;;;;;;;;2209559;59;2621;-23
2023/06/16 10:33:51;;;;;;;;;;;;;;;;;;2208462;59;2289;-22
2023/06/16 10:36:23;;;;;;;;;;;;;;;;;;2209198;67;2031;-21
2023/06/16 10:38:55;;;;;;;;;;;;;;;;;;2210035;67;1731;-22
2023/06/16 10:41:29;;;;;;;;;;;;;;;;;;2210263;67;3234;-21
2023/06/16 10:44:18;;;;;;;;;;;;;;;;;;2209949;67;1791;-21
2023/06/16 10:47:07;;;;;;;;;;;;;;;;;;2210799;59;2760;-22
2023/06/16 10:49:43;;;;;;;;;;;;;;;;;;2210596;59;2946;-22
2023/06/16 10:52:39;;;;;;;;;;;;;;;;;;2210445;59;1830;-23
2023/06/16 10:55:27;;;;;;;;;;;;;;;;;;2203641;59;2499;-23
2023/06/16 10:58:19;;;;;;;;;;;;;;;;;;2209804;59;2080;-22
2023/06/16 11:00:57;;;;;;;;;;;;;;;;;;2207100;59;2238;-23
2023/06/16 11:03:45;;;;;;;;;;;;;;;;;;2210476;59;1654;-22
2023/06/16 11:06:17;;;;;;;;;;;;;;;;;;2210542;67;1877;-22
2023/06/16 11:08:48;;;;;;;;;;;;;;;;;;2210071;67;1894;-22
2023/06/16 11:11:18;;;;;;;;;;;;;;;;;;2210539;67;1708;-22
2023/06/16 11:13:49;;;;;;;;;;;;;;;;;;2210141;59;2193;-22
2023/06/16 11:16:19;;;;;;;;;;;;;;;;;;2210783;67;1341;-22
2023/06/16 11:18:50;;;;;;;;;;;;;;;;;;2209687;59;2115;-22
2023/06/16 11:21:24;;;;;;;;;;;;;;;;;;2209618;67;2041;-22
2023/06/16 11:24:06;;;;;;;;;;;;;;;;;;2210444;59;2374;-23
2023/06/16 11:26:36;;;;;;;;;;;;;;;;;;2205992;59;1242;-22
2023/06/16 11:29:07;;;;;;;;;;;;;;;;;;2206922;67;1753;-22
2023/06/16 11:31:38;;;;;;;;;;;;;;;;;;2209125;59;2769;-22
2023/06/16 11:34:08;;;;;;;;;;;;;;;;;;2208439;59;2955;-22
2023/06/16 11:36:45;;;;;;;;;;;;;;;;;;2209722;67;1755;-22
2023/06/16 11:39:16;;;;;;;;;;;;;;;;;;2209643;67;1852;-23
2023/06/16 11:41:46;;;;;;;;;;;;;;;;;;2209960;67;1941;-22
2023/06/16 11:44:16;;;;;;;;;;;;;;;;;;2209832;67;2501;-23
2023/06/16 11:46:47;;;;;;;;;;;;;;;;;;2210633;67;2123;-23
2023/06/16 11:49:18;;;;;;;;;;;;;;;;;;2209686;59;1662;-23
2023/06/16 11:51:48;;;;;;;;;;;;;;;;;;2205125;59;2421;-23
2023/06/16 11:54:20;;;;;;;;;;;;;;;;;;2209732;67;2306;-22
2023/06/16 11:56:56;;;;;;;;;;;;;;;;;;2209521;67;2425;-22
2023/06/16 11:59:32;;;;;;;;;;;;;;;;;;2210078;59;2591;-22
2023/06/16 12:02:03;;;;;;;;;;;;;;;;;;2208580;59;2368;-22
2023/06/16 12:04:33;;;;;;;;;;;;;;;;;;2209483;67;2525;-22
2023/06/16 12:07:03;;;;;;;;;;;;;;;;;;2210427;67;2167;-21
2023/06/16 12:09:37;;;;;;;;;;;;;;;;;;2205784;59;2210;-21
2023/06/16 12:12:08;;;;;;;;;;;;;;;;;;2205476;67;1922;-21
2023/06/16 12:14:39;;;;;;;;;;;;;;;;;;2209627;67;2424;-23
2023/06/16 12:17:09;;;;;;;;;;;;;;;;;;2209860;67;2355;-21
2023/06/16 12:19:40;;;;;;;;;;;;;;;;;;2209977;59;1625;-24
2023/06/16 12:22:13;;;;;;;;;;;;;;;;;;2209422;59;2131;-21
2023/06/16 12:24:43;;;;;;;;;;;;;;;;;;2210590;59;1380;-21
2023/06/16 12:27:20;;;;;;;;;;;;;;;;;;2210857;59;1236;-22
2023/06/16 12:29:57;;;;;;;;;;;;;;;;;;2211579;67;2217;-22
2023/06/16 12:32:32;;;;;;;;;;;;;;;;;;2210550;59;2575;-21
2023/06/16 12:35:04;;;;;;;;;;;;;;;;;;2213352;59;2653;-22
2023/06/16 12:37:35;;;;;;;;;;;;;;;;;;2213821;67;2184;-22
2023/06/16 12:40:07;;;;;;;;;;;;;;;;;;2215446;67;1814;-22
2023/06/16 12:42:37;;;;;;;;;;;;;;;;;;2211568;67;1936;-21
2023/06/16 12:45:08;;;;;;;;;;;;;;;;;;2211627;67;2120;-22
2023/06/16 12:47:38;;;;;;;;;;;;;;;;;;2210791;59;3019;-22
2023/06/16 12:50:08;;;;;;;;;;;;;;;;;;2210964;59;2384;-22
2023/06/16 12:52:39;;;;;;;;;;;;;;;;;;2210967;59;2129;-21
2023/06/16 12:55:09;;;;;;;;;;;;;;;;;;2210107;67;1788;-21
2023/06/16 12:57:40;;;;;;;;;;;;;;;;;;2210522;59;2136;-22
2023/06/16 13:00:10;;;;;;;;;;;;;;;;;;2210384;59;2269;-22
2023/06/16 13:02:42;;;;;;;;;;;;;;;;;;2209773;59;2851;-21
2023/06/16 13:05:12;;;;;;;;;;;;;;;;;;2210014;67;1945;-21
2023/06/16 13:07:43;;;;;;;;;;;;;;;;;;2209958;59;2175;-21
2023/06/16 13:10:13;;;;;;;;;;;;;;;;;;2210290;67;2440;-21
2023/06/16 13:12:43;;;;;;;;;;;;;;;;;;2205849;59;2164;-21
2023/06/16 13:15:13;;;;;;;;;;;;;;;;;;2210786;67;2765;-21
2023/06/16 13:17:44;;;;;;;;;;;;;;;;;;2209757;67;1556;-21
2023/06/16 13:20:14;;;;;;;;;;;;;;;;;;2209014;59;2479;-21
2023/06/16 13:22:44;;;;;;;;;;;;;;;;;;2209113;67;1935;-21
2023/06/16 13:25:14;;;;;;;;;;;;;;;;;;2210017;59;1240;-21
2023/06/16 13:27:45;;;;;;;;;;;;;;;;;;2209554;59;2077;-21
2023/06/16 13:30:15;;;;;;;;;;;;;;;;;;2209934;59;2173;-21
2023/06/16 13:32:45;;;;;;;;;;;;;;;;;;2210287;67;1231;-21
2023/06/16 13:35:15;;;;;;;;;;;;;;;;;;2207192;59;2670;-21
2023/06/16 13:37:46;;;;;;;;;;;;;;;;;;2210122;67;2603;-21
2023/06/16 13:40:17;;;;;;;;;;;;;;;;;;2210318;67;2408;-21
2023/06/16 13:42:47;;;;;;;;;;;;;;;;;;2210134;67;2183;-22
2023/06/16 13:45:17;;;;;;;;;;;;;;;;;;2204198;59;2306;-21
2023/06/16 13:47:48;;;;;;;;;;;;;;;;;;2205405;59;2189;-22
2023/06/16 13:50:18;;;;;;;;;;;;;;;;;;2210687;67;2111;-21
2023/06/16 13:52:48;;;;;;;;;;;;;;;;;;2209298;59;1715;-21
2023/06/16 13:55:19;;;;;;;;;;;;;;;;;;2206571;67;3004;-21
2023/06/16 13:57:50;;;;;;;;;;;;;;;;;;2210466;59;2119;-21
2023/06/16 14:00:20;;;;;;;;;;;;;;;;;;2210351;59;2148;-21
2023/06/16 14:02:52;;;;;;;;;;;;;;;;;;2210835;59;2035;-21
2023/06/16 14:05:22;;;;;;;;;;;;;;;;;;2210027;59;1996;-21
2023/06/16 14:07:52;;;;;;;;;;;;;;;;;;2207016;59;1696;-21
2023/06/16 14:10:23;;;;;;;;;;;;;;;;;;2209868;59;2155;-21
2023/06/16 14:12:53;;;;;;;;;;;;;;;;;;2208924;59;2432;-21
2023/06/16 14:15:23;;;;;;;;;;;;;;;;;;2208549;59;2653;-23
2023/06/16 14:17:54;;;;;;;;;;;;;;;;;;2209269;59;2274;-23
2023/06/16 14:20:24;;;;;;;;;;;;;;;;;;2207854;59;2259;-23
2023/06/16 14:22:56;;;;;;;;;;;;;;;;;;2210181;67;1988;-23
2023/06/16 14:25:27;;;;;;;;;;;;;;;;;;2209716;59;2241;-21
2023/06/16 14:27:57;;;;;;;;;;;;;;;;;;2210006;59;1675;-23
2023/06/16 14:30:27;;;;;;;;;;;;;;;;;;2209978;59;2225;-23
2023/06/16 14:32:57;;;;;;;;;;;;;;;;;;2209089;67;2230;-30
2023/06/16 14:35:27;;;;;;;;;;;;;;;;;;2208808;59;2735;-21
2023/06/16 14:37:58;;;;;;;;;;;;;;;;;;2204837;59;3335;-22
2023/06/16 14:40:28;;;;;;;;;;;;;;;;;;2209570;67;1806;-21
2023/06/16 14:42:58;;;;;;;;;;;;;;;;;;2204521;59;2329;-22
2023/06/16 14:45:29;;;;;;;;;;;;;;;;;;2209408;63;1649;-22
2023/06/16 14:47:59;;;;;;;;;;;;;;;;;;2209343;59;2634;-22
2023/06/16 14:50:29;;;;;;;;;;;;;;;;;;2206451;59;1775;-22
2023/06/16 14:52:59;;;;;;;;;;;;;;;;;;2209515;59;3005;-22
2023/06/16 14:55:29;;;;;;;;;;;;;;;;;;2206257;67;1850;-22
2023/06/16 14:58:00;;;;;;;;;;;;;;;;;;2210537;67;2788;-22
2023/06/16 15:00:30;;;;;;;;;;;;;;;;;;2206842;59;2411;-22
2023/06/16 15:03:00;;;;;;;;;;;;;;;;;;2208881;59;2064;-22
2023/06/16 15:05:30;;;;;;;;;;;;;;;;;;2209353;67;2116;-22
2023/06/16 15:08:01;;;;;;;;;;;;;;;;;;2209602;59;2412;-22
2023/06/16 15:10:31;;;;;;;;;;;;;;;;;;2210612;67;2208;-22
2023/06/16 15:13:01;;;;;;;;;;;;;;;;;;2209217;59;2085;-22
2023/06/16 15:15:31;;;;;;;;;;;;;;;;;;2209601;59;1956;-22
2023/06/16 15:18:02;;;;;;;;;;;;;;;;;;2210434;67;2354;-22
2023/06/16 15:20:32;;;;;;;;;;;;;;;;;;2209129;59;2214;-22
2023/06/16 15:23:02;;;;;;;;;;;;;;;;;;2209543;60;2093;-21
2023/06/16 15:25:35;;;;;;;;;;;;;;;;;;2203370;54;2197;-18
2023/06/16 15:28:05;;;;;;;;;;;;;;;;;;2198252;59;1847;-18
2023/06/16 15:30:37;;;;;;;;;;;;;;;;;;2199777;59;2800;-18
2023/06/16 15:33:07;;;;;;;;;;;;;;;;;;2199003;59;2541;-18
2023/06/16 15:35:37;;;;;;;;;;;;;;;;;;2199465;67;2284;-18
2023/06/16 15:38:08;;;;;;;;;;;;;;;;;;2200119;67;2457;-18
2023/06/16 15:40:39;;;;;;;;;;;;;;;;;;2199499;66;1829;-18
2023/06/16 15:43:12;;;;;;;;;;;;;;;;;;2197551;59;2576;-18
2023/06/16 15:45:42;;;;;;;;;;;;;;;;;;2198763;66;2365;-18
2023/06/16 15:48:13;;;;;;;;;;;;;;;;;;2198538;59;1847;-18
2023/06/16 15:50:43;;;;;;;;;;;;;;;;;;2199106;59;2646;-18
2023/06/16 15:53:13;;;;;;;;;;;;;;;;;;2198407;59;1966;-18
2023/06/16 15:55:44;;;;;;;;;;;;;;;;;;2199536;66;1646;-18
2023/06/16 15:58:14;;;;;;;;;;;;;;;;;;2199392;59;2064;-18
2023/06/16 16:00:44;;;;;;;;;;;;;;;;;;2199818;59;2273;-18
2023/06/16 16:03:14;;;;;;;;;;;;;;;;;;2199814;66;1949;-18
2023/06/16 16:05:45;;;;;;;;;;;;;;;;;;2199430;66;2140;-19
2023/06/16 16:08:15;;;;;;;;;;;;;;;;;;2199444;66;1711;-18
2023/06/16 16:10:45;;;;;;;;;;;;;;;;;;2199815;66;1988;-18
2023/06/16 16:13:15;;;;;;;;;;;;;;;;;;2200473;66;1487;-18
2023/06/16 16:15:55;;;;;;;;;;;;;;;;;;2200738;66;1523;-18
2023/06/16 16:18:25;;;;;;;;;;;;;;;;;;2200670;66;1677;-18
2023/06/16 16:20:55;;;;;;;;;;;;;;;;;;2202848;66;1319;-18
2023/06/16 16:23:26;;;;;;;;;;;;;;;;;;2200796;59;1942;-18
2023/06/16 16:25:56;;;;;;;;;;;;;;;;;;2200671;67;2066;-17
2023/06/16 16:28:26;;;;;;;;;;;;;;;;;;2200582;66;1313;-17
2023/06/16 16:30:57;;;;;;;;;;;;;;;;;;2200499;59;1414;-18
2023/06/16 16:33:30;;;;;;;;;;;;;;;;;;2201025;66;1860;-18
2023/06/16 16:36:00;;;;;;;;;;;;;;;;;;2200417;59;1279;-18
2023/06/16 16:38:32;;;;;;;;;;;;;;;;;;2200968;66;1770;-20
2023/06/16 16:41:02;;;;;;;;;;;;;;;;;;2201335;67;1677;-20
2023/06/16 16:43:32;;;;;;;;;;;;;;;;;;2201273;66;2099;-20
2023/06/16 16:46:02;;;;;;;;;;;;;;;;;;2203714;67;1518;-20
2023/06/16 16:48:33;;;;;;;;;;;;;;;;;;2203813;59;1771;-20
2023/06/16 16:51:03;;;;;;;;;;;;;;;;;;2199224;59;1347;-20
2023/06/16 16:53:37;;;;;;;;;;;;;;;;;;2200546;66;1808;-20
2023/06/16 16:56:08;;;;;;;;;;;;;;;;;;2198797;66;1345;-20
2023/06/16 16:58:38;;;;;;;;;;;;;;;;;;2196143;58;2516;-20
2023/06/16 17:01:08;;;;;;;;;;;;;;;;;;2198038;59;2240;-20
2023/06/16 17:03:39;;;;;;;;;;;;;;;;;;2199306;66;1965;-18
2023/06/16 17:06:10;;;;;;;;;;;;;;;;;;2199032;67;1859;-18
2023/06/16 17:08:43;;;;;;;;;;;;;;;;;;2198579;59;2260;-18
2023/06/16 17:11:13;;;;;;;;;;;;;;;;;;2199494;66;1876;-17
2023/06/16 17:13:44;;;;;;;;;;;;;;;;;;2201288;66;1856;-18
2023/06/16 17:16:14;;;;;;;;;;;;;;;;;;2199396;59;2863;-18
2023/06/16 17:18:45;;;;;;;;;;;;;;;;;;2198674;66;1929;-17
2023/06/16 17:21:15;;;;;;;;;;;;;;;;;;2200790;66;1914;-18
2023/06/16 17:23:46;;;;;;;;;;;;;;;;;;2198570;59;2462;-17
2023/06/16 17:26:17;;;;;;;;;;;;;;;;;;2199106;67;1674;-18
2023/06/16 17:28:48;;;;;;;;;;;;;;;;;;2199238;66;2394;-18
2023/06/16 17:31:18;;;;;;;;;;;;;;;;;;2197543;59;2174;-17
2023/06/16 17:33:48;;;;;;;;;;;;;;;;;;2197775;59;2202;-17
2023/06/16 17:36:19;;;;;;;;;;;;;;;;;;2198086;59;2057;-17